Time;durP1;ratioP1;P1;durP2;ratioP2;P2;SDS_P1;SDS_P2;PMS_P1;PMS_P2;Temp;Humidity;BMP_temperature;BMP_pressure;BME280_temperature;BME280_humidity;BME280_pressure;Samples;Min_cycle;Max_cycle;Signal;HPM_P1;HPM_P2
2020/12/09 00:00:16;;;;;;;22.33;11.25;;;;;;;;;;2054772;28;20027;-70
2020/12/09 00:01:35;;;;;;;21.85;11.23;;;;;;;;;;2048611;28;20043;-70
2020/12/09 00:02:54;;;;;;;21.92;11.57;;;;;;;;;;2054788;28;20031;-70
2020/12/09 00:04:13;;;;;;;19.10;10.68;;;;;;;;;;2057065;28;20023;-69
2020/12/09 00:05:32;;;;;;;22.45;10.27;;;;;;;;;;2056398;28;20023;-71
2020/12/09 00:06:52;;;;;;;17.77;10.35;;;;;;;;;;2056959;28;20105;-70
2020/12/09 00:08:11;;;;;;;22.50;11.25;;;;;;;;;;2055969;28;20027;-70
2020/12/09 00:09:29;;;;;;;21.55;11.30;;;;;;;;;;2050525;28;20039;-70
2020/12/09 00:10:48;;;;;;;21.88;11.10;;;;;;;;;;2054512;28;20039;-71
2020/12/09 00:12:07;;;;;;;18.20;10.98;;;;;;;;;;2053259;28;20062;-69
2020/12/09 00:13:26;;;;;;;21.38;12.00;;;;;;;;;;2050576;28;20043;-70
2020/12/09 00:14:45;;;;;;;22.00;11.65;;;;;;;;;;2055228;28;20042;-70
2020/12/09 00:16:04;;;;;;;20.70;11.10;;;;;;;;;;2052114;28;20391;-69
2020/12/09 00:17:23;;;;;;;24.58;11.85;;;;;;;;;;2050635;28;20035;-69
2020/12/09 00:18:42;;;;;;;17.85;10.70;;;;;;;;;;2054610;28;20031;-70
2020/12/09 00:20:01;;;;;;;20.08;10.75;;;;;;;;;;2055592;28;20023;-70
2020/12/09 00:21:20;;;;;;;15.52;10.52;;;;;;;;;;2051694;28;20371;-70
2020/12/09 00:22:39;;;;;;;19.90;11.18;;;;;;;;;;2053176;28;20039;-70
2020/12/09 00:23:59;;;;;;;18.83;10.68;;;;;;;;;;2055813;28;20050;-70
2020/12/09 00:25:17;;;;;;;20.80;10.63;;;;;;;;;;2056694;28;20495;-70
2020/12/09 00:26:36;;;;;;;18.40;10.60;;;;;;;;;;2049418;28;20039;-70
2020/12/09 00:27:55;;;;;;;16.88;10.63;;;;;;;;;;2055691;28;20031;-71
2020/12/09 00:29:14;;;;;;;21.50;10.88;;;;;;;;;;2057568;28;20039;-70
2020/12/09 00:30:33;;;;;;;20.15;11.70;;;;;;;;;;2050649;28;20106;-70
2020/12/09 00:31:52;;;;;;;23.48;10.88;;;;;;;;;;2049203;28;20047;-68
2020/12/09 00:33:11;;;;;;;23.05;11.20;;;;;;;;;;2057629;28;20026;-71
2020/12/09 00:34:30;;;;;;;15.23;11.18;;;;;;;;;;2054448;28;20031;-70
2020/12/09 00:35:49;;;;;;;22.08;11.25;;;;;;;;;;2055284;28;20046;-70
2020/12/09 00:37:08;;;;;;;18.50;10.65;;;;;;;;;;2052938;28;20035;-71
2020/12/09 00:38:27;;;;;;;18.77;10.52;;;;;;;;;;2051133;28;20102;-70
2020/12/09 00:39:46;;;;;;;19.02;11.48;;;;;;;;;;2056781;28;20023;-69
2020/12/09 00:41:05;;;;;;;21.20;10.95;;;;;;;;;;2055190;28;20026;-70
2020/12/09 00:42:24;;;;;;;22.15;10.55;;;;;;;;;;2051566;28;20019;-70
2020/12/09 00:43:43;;;;;;;24.73;11.50;;;;;;;;;;2050523;28;20023;-70
2020/12/09 00:45:03;;;;;;;18.20;10.25;;;;;;;;;;2056999;28;20027;-68
2020/12/09 00:46:26;;;;;;;24.95;10.57;;;;;;;;;;2055739;28;20027;-70
2020/12/09 00:47:44;;;;;;;22.20;10.57;;;;;;;;;;2052544;28;20419;-70
2020/12/09 00:49:03;;;;;;;17.58;10.63;;;;;;;;;;2056971;28;20023;-70
2020/12/09 00:51:41;;;;;;;18.83;10.23;;;;;;;;;;2055843;28;20487;-70
2020/12/09 00:53:00;;;;;;;19.00;11.45;;;;;;;;;;2050387;28;20035;-70
2020/12/09 00:54:19;;;;;;;19.25;10.98;;;;;;;;;;2049456;28;20031;-70
2020/12/09 00:55:37;;;;;;;17.95;11.13;;;;;;;;;;2051378;28;20039;-70
2020/12/09 00:56:56;;;;;;;18.20;10.88;;;;;;;;;;2053796;28;20114;-71
2020/12/09 00:58:15;;;;;;;23.33;11.98;;;;;;;;;;2055061;28;20066;-70
2020/12/09 00:59:34;;;;;;;16.73;10.98;;;;;;;;;;2055077;28;20102;-70
2020/12/09 01:00:53;;;;;;;19.63;11.18;;;;;;;;;;2055033;28;20386;-70
2020/12/09 01:02:12;;;;;;;22.98;11.07;;;;;;;;;;2049622;28;20043;-69
2020/12/09 01:03:32;;;;;;;21.83;12.43;;;;;;;;;;2056963;28;20031;-70
2020/12/09 01:04:51;;;;;;;22.10;11.23;;;;;;;;;;2054479;28;20027;-71
2020/12/09 01:06:10;;;;;;;18.90;10.93;;;;;;;;;;2055151;28;20094;-70
2020/12/09 01:07:29;;;;;;;21.08;11.32;;;;;;;;;;2056915;28;20023;-70
2020/12/09 01:08:48;;;;;;;22.10;10.98;;;;;;;;;;2049815;28;20039;-70
2020/12/09 01:10:08;;;;;;;18.13;11.10;;;;;;;;;;2054094;28;20031;-70
2020/12/09 01:11:27;;;;;;;22.75;11.95;;;;;;;;;;2056383;28;20043;-70
2020/12/09 01:12:46;;;;;;;37.85;11.82;;;;;;;;;;2057990;28;20042;-70
2020/12/09 01:14:05;;;;;;;20.90;11.98;;;;;;;;;;2056533;28;20383;-70
2020/12/09 01:15:24;;;;;;;20.83;11.80;;;;;;;;;;2057731;28;20368;-69
2020/12/09 01:16:43;;;;;;;22.45;11.80;;;;;;;;;;2053335;28;20035;-69
2020/12/09 01:18:03;;;;;;;21.23;11.18;;;;;;;;;;2058674;28;20387;-70
2020/12/09 01:19:22;;;;;;;24.25;11.60;;;;;;;;;;2051841;28;20439;-70
2020/12/09 01:20:41;;;;;;;24.55;11.98;;;;;;;;;;2057587;28;20027;-70
2020/12/09 01:22:04;;;;;;;20.98;10.30;;;;;;;;;;2052581;28;20372;-70
2020/12/09 01:23:23;;;;;;;;;;;;;;;;;;2055507;28;20031;-70
2020/12/09 01:24:42;;;;;;;18.38;10.35;;;;;;;;;;2058064;28;19932;-70
2020/12/09 01:26:01;;;;;;;23.65;10.95;;;;;;;;;;2056406;28;20027;-70
2020/12/09 01:27:23;;;;;;;21.02;10.25;;;;;;;;;;2049047;28;20031;-70
2020/12/09 01:28:42;;;;;;;22.35;11.02;;;;;;;;;;2054535;28;20371;-70
2020/12/09 01:30:01;;;;;;;21.70;11.48;;;;;;;;;;2049359;28;20402;-70
2020/12/09 01:31:22;;;;;;;18.75;10.95;;;;;;;;;;2049875;28;20381;-71
2020/12/09 01:32:41;;;;;;;19.63;11.07;;;;;;;;;;2046443;28;20031;-69
2020/12/09 01:34:00;;;;;;;16.70;11.40;;;;;;;;;;2052103;28;20105;-70
2020/12/09 01:35:19;;;;;;;22.00;11.45;;;;;;;;;;2048558;28;20467;-70
2020/12/09 01:36:38;;;;;;;18.95;11.43;;;;;;;;;;2043260;28;20052;-68
2020/12/09 01:37:57;;;;;;;19.17;11.25;;;;;;;;;;2044370;28;20376;-70
2020/12/09 01:39:16;;;;;;;22.55;11.68;;;;;;;;;;2048525;28;20018;-68
2020/12/09 01:40:35;;;;;;;22.58;10.55;;;;;;;;;;2050241;28;20550;-69
2020/12/09 01:41:54;;;;;;;23.38;12.38;;;;;;;;;;2050460;28;20057;-69
2020/12/09 01:43:13;;;;;;;16.50;10.40;;;;;;;;;;2050131;28;20348;-70
2020/12/09 01:44:32;;;;;;;19.65;10.80;;;;;;;;;;2051435;28;20440;-69
2020/12/09 01:45:50;;;;;;;18.60;10.80;;;;;;;;;;2051303;28;20382;-69
2020/12/09 01:47:09;;;;;;;19.50;10.85;;;;;;;;;;2046369;28;20486;-69
2020/12/09 01:48:28;;;;;;;14.77;10.00;;;;;;;;;;2050245;28;21284;-71
2020/12/09 01:49:47;;;;;;;19.52;10.52;;;;;;;;;;2049597;28;20066;-69
2020/12/09 01:51:06;;;;;;;15.63;10.40;;;;;;;;;;2051501;28;20039;-71
2020/12/09 01:52:25;;;;;;;15.13;10.15;;;;;;;;;;2049973;28;20034;-69
2020/12/09 01:53:44;;;;;;;15.95;9.93;;;;;;;;;;2052465;28;20121;-69
2020/12/09 01:55:03;;;;;;;20.52;9.48;;;;;;;;;;2046806;28;20030;-71
2020/12/09 01:56:22;;;;;;;16.75;9.65;;;;;;;;;;2049014;28;20030;-71
2020/12/09 01:57:41;;;;;;;14.35;9.60;;;;;;;;;;2047910;28;20072;-69
2020/12/09 01:59:00;;;;;;;16.48;9.27;;;;;;;;;;2050160;28;20467;-71
2020/12/09 02:00:19;;;;;;;15.80;9.77;;;;;;;;;;2049228;28;20055;-69
2020/12/09 02:01:38;;;;;;;14.90;9.70;;;;;;;;;;2050425;28;20027;-71
2020/12/09 02:02:57;;;;;;;18.52;9.90;;;;;;;;;;2049440;28;20023;-69
2020/12/09 02:04:16;;;;;;;17.33;9.20;;;;;;;;;;2049398;28;20027;-69
2020/12/09 02:05:36;;;;;;;17.60;9.55;;;;;;;;;;2051079;28;20122;-71
2020/12/09 02:06:55;;;;;;;13.50;9.15;;;;;;;;;;2048629;28;20031;-71
2020/12/09 02:08:14;;;;;;;13.35;9.02;;;;;;;;;;2049410;28;20503;-71
2020/12/09 02:09:33;;;;;;;16.30;8.95;;;;;;;;;;2051340;28;20066;-70
2020/12/09 02:10:58;;;;;;;17.58;9.27;;;;;;;;;;2048149;28;20039;-71
2020/12/09 02:12:17;;;;;;;15.48;9.27;;;;;;;;;;2052493;28;20039;-71
2020/12/09 02:13:40;;;;;;;15.02;8.70;;;;;;;;;;2045861;28;20039;-71
2020/12/09 02:15:00;;;;;;;17.80;9.30;;;;;;;;;;2050067;28;20035;-69
2020/12/09 02:16:19;;;;;;;13.93;9.50;;;;;;;;;;2051131;28;20039;-70
2020/12/09 02:17:38;;;;;;;14.52;8.93;;;;;;;;;;2043826;28;20403;-70
2020/12/09 02:18:57;;;;;;;15.20;8.93;;;;;;;;;;2045098;28;20398;-69
2020/12/09 02:20:16;;;;;;;15.07;9.18;;;;;;;;;;2045535;28;20027;-69
2020/12/09 02:21:35;;;;;;;13.27;8.98;;;;;;;;;;2045473;28;22270;-71
2020/12/09 02:22:55;;;;;;;15.52;9.50;;;;;;;;;;2050122;28;20463;-69
2020/12/09 02:24:14;;;;;;;12.38;8.05;;;;;;;;;;2048744;28;20023;-68
2020/12/09 02:25:33;;;;;;;14.63;9.00;;;;;;;;;;2049319;28;20427;-69
2020/12/09 02:26:52;;;;;;;14.23;9.05;;;;;;;;;;2050131;28;20471;-69
2020/12/09 02:28:11;;;;;;;13.65;9.23;;;;;;;;;;2047903;28;20031;-70
2020/12/09 02:29:30;;;;;;;15.48;9.05;;;;;;;;;;2045159;28;20043;-68
2020/12/09 02:30:49;;;;;;;13.38;8.70;;;;;;;;;;2050209;28;20449;-68
2020/12/09 02:32:08;;;;;;;13.70;9.38;;;;;;;;;;2049884;28;20197;-68
2020/12/09 02:33:27;;;;;;;16.92;9.27;;;;;;;;;;2049954;28;20070;-69
2020/12/09 02:34:46;;;;;;;13.70;8.82;;;;;;;;;;2050662;28;20027;-71
2020/12/09 02:36:05;;;;;;;15.32;9.80;;;;;;;;;;2048960;28;20064;-71
2020/12/09 02:37:24;;;;;;;14.02;9.20;;;;;;;;;;2048813;28;20480;-70
2020/12/09 02:38:43;;;;;;;15.07;9.20;;;;;;;;;;2050122;28;20031;-70
2020/12/09 02:40:02;;;;;;;16.05;9.63;;;;;;;;;;2049657;28;20023;-71
2020/12/09 02:41:21;;;;;;;16.45;9.88;;;;;;;;;;2050800;28;20112;-71
2020/12/09 02:42:40;;;;;;;14.63;9.98;;;;;;;;;;2052849;28;20407;-70
2020/12/09 02:43:59;;;;;;;17.55;10.65;;;;;;;;;;2049422;28;20031;-71
2020/12/09 02:45:18;;;;;;;13.32;9.65;;;;;;;;;;2050589;28;20046;-71
2020/12/09 02:46:37;;;;;;;17.00;10.55;;;;;;;;;;2051542;28;20027;-71
2020/12/09 02:47:56;;;;;;;17.02;10.60;;;;;;;;;;2049983;28;20368;-71
2020/12/09 02:49:15;;;;;;;18.48;10.68;;;;;;;;;;2048952;28;20031;-70
2020/12/09 02:50:33;;;;;;;17.27;10.70;;;;;;;;;;2048780;28;20412;-69
2020/12/09 02:51:53;;;;;;;16.92;10.15;;;;;;;;;;2049754;28;20403;-69
2020/12/09 02:53:12;;;;;;;19.30;10.07;;;;;;;;;;2049021;28;20066;-70
2020/12/09 02:54:31;;;;;;;21.60;11.10;;;;;;;;;;2049896;28;20602;-70
2020/12/09 02:55:50;;;;;;;21.80;10.38;;;;;;;;;;2049424;28;20795;-73
2020/12/09 02:57:09;;;;;;;19.70;11.40;;;;;;;;;;2048785;28;21399;-68
2020/12/09 02:58:28;;;;;;;17.25;10.98;;;;;;;;;;2048198;28;20067;-71
2020/12/09 02:59:47;;;;;;;16.95;10.90;;;;;;;;;;2049509;28;20022;-70
2020/12/09 03:01:06;;;;;;;18.50;10.65;;;;;;;;;;2046466;28;20031;-70
2020/12/09 03:02:25;;;;;;;18.65;10.30;;;;;;;;;;2049534;28;20031;-69
2020/12/09 03:03:46;;;;;;;20.60;11.55;;;;;;;;;;2050046;28;20027;-70
2020/12/09 03:05:05;;;;;;;18.55;10.55;;;;;;;;;;2050228;28;20058;-71
2020/12/09 03:06:24;;;;;;;17.80;11.40;;;;;;;;;;2049965;28;20031;-71
2020/12/09 03:07:43;;;;;;;15.93;10.68;;;;;;;;;;2048216;28;20026;-70
2020/12/09 03:09:02;;;;;;;18.73;11.25;;;;;;;;;;2050797;28;20468;-69
2020/12/09 03:10:21;;;;;;;18.33;10.68;;;;;;;;;;2046294;28;20438;-71
2020/12/09 03:11:40;;;;;;;22.63;11.13;;;;;;;;;;2047053;28;20038;-71
2020/12/09 03:12:59;;;;;;;20.20;11.52;;;;;;;;;;2048285;28;20475;-69
2020/12/09 03:14:18;;;;;;;20.73;12.20;;;;;;;;;;2049884;28;20035;-69
2020/12/09 03:15:37;;;;;;;18.58;11.25;;;;;;;;;;2050574;28;20036;-69
2020/12/09 03:16:56;;;;;;;19.92;11.15;;;;;;;;;;2048271;28;20027;-70
2020/12/09 03:18:15;;;;;;;20.27;12.10;;;;;;;;;;2048943;28;20043;-70
2020/12/09 03:19:34;;;;;;;19.85;11.07;;;;;;;;;;2048067;28;20056;-71
2020/12/09 03:20:53;;;;;;;19.23;12.25;;;;;;;;;;2045873;28;20026;-70
2020/12/09 03:22:12;;;;;;;20.52;11.82;;;;;;;;;;2048741;28;20429;-69
2020/12/09 03:23:31;;;;;;;20.33;11.75;;;;;;;;;;2047956;28;20023;-70
2020/12/09 03:24:49;;;;;;;23.17;11.63;;;;;;;;;;2047356;28;20451;-69
2020/12/09 03:26:08;;;;;;;22.50;12.13;;;;;;;;;;2048328;28;20042;-70
2020/12/09 03:27:27;;;;;;;19.02;12.02;;;;;;;;;;2049764;28;20035;-71
2020/12/09 03:28:46;;;;;;;21.85;12.55;;;;;;;;;;2049570;28;20166;-71
2020/12/09 03:30:05;;;;;;;24.80;12.05;;;;;;;;;;2049362;28;20027;-70
2020/12/09 03:31:24;;;;;;;20.65;12.10;;;;;;;;;;2047084;28;20043;-69
2020/12/09 03:32:43;;;;;;;21.08;11.95;;;;;;;;;;2048102;28;20034;-69
2020/12/09 03:34:02;;;;;;;19.23;12.10;;;;;;;;;;2049417;28;20106;-68
2020/12/09 03:35:21;;;;;;;22.88;12.65;;;;;;;;;;2049361;28;20483;-70
2020/12/09 03:36:40;;;;;;;21.63;12.68;;;;;;;;;;2048290;28;20497;-68
2020/12/09 03:37:59;;;;;;;20.00;12.18;;;;;;;;;;2047111;28;20386;-70
2020/12/09 03:39:18;;;;;;;23.52;12.57;;;;;;;;;;2048010;28;20035;-71
2020/12/09 03:40:37;;;;;;;22.98;12.32;;;;;;;;;;2049255;28;20079;-68
2020/12/09 03:41:56;;;;;;;22.15;12.63;;;;;;;;;;2048620;28;20023;-68
2020/12/09 03:43:16;;;;;;;18.98;12.30;;;;;;;;;;2046842;28;20039;-70
2020/12/09 03:44:34;;;;;;;19.80;11.82;;;;;;;;;;2048400;28;20027;-70
2020/12/09 03:45:53;;;;;;;20.60;12.98;;;;;;;;;;2045673;28;20023;-69
2020/12/09 03:47:12;;;;;;;24.02;13.02;;;;;;;;;;2048507;28;20027;-68
2020/12/09 03:48:31;;;;;;;21.98;12.75;;;;;;;;;;2049166;28;20086;-70
2020/12/09 03:49:50;;;;;;;26.02;12.23;;;;;;;;;;2049691;28;20439;-71
2020/12/09 03:51:09;;;;;;;20.95;12.02;;;;;;;;;;2048280;28;20175;-68
2020/12/09 03:52:28;;;;;;;21.20;12.40;;;;;;;;;;2048760;28;20035;-68
2020/12/09 03:53:47;;;;;;;23.48;12.13;;;;;;;;;;2046181;28;20070;-71
2020/12/09 03:55:06;;;;;;;22.25;11.77;;;;;;;;;;2047147;28;20027;-70
2020/12/09 03:56:25;;;;;;;20.77;12.55;;;;;;;;;;2048084;28;20054;-70
2020/12/09 03:57:44;;;;;;;20.67;12.02;;;;;;;;;;2048421;28;20034;-69
2020/12/09 03:59:03;;;;;;;19.67;12.23;;;;;;;;;;2048321;28;20034;-71
2020/12/09 04:00:22;;;;;;;22.48;12.57;;;;;;;;;;2048464;28;20114;-71
2020/12/09 04:01:41;;;;;;;20.60;12.45;;;;;;;;;;2048842;28;20035;-71
2020/12/09 04:03:00;;;;;;;20.30;12.02;;;;;;;;;;2048181;28;20031;-71
2020/12/09 04:04:19;;;;;;;20.27;11.70;;;;;;;;;;2048123;28;20419;-70
2020/12/09 04:05:38;;;;;;;23.50;11.75;;;;;;;;;;2048112;28;20035;-68
2020/12/09 04:06:57;;;;;;;20.17;12.25;;;;;;;;;;2049323;28;21441;-71
2020/12/09 04:08:16;;;;;;;22.40;12.70;;;;;;;;;;2050144;28;20032;-70
2020/12/09 04:09:35;;;;;;;18.55;11.40;;;;;;;;;;2048466;28;20031;-69
2020/12/09 04:10:54;;;;;;;20.88;11.77;;;;;;;;;;2047273;28;20035;-70
2020/12/09 04:12:12;;;;;;;20.08;12.05;;;;;;;;;;2048399;28;20467;-71
2020/12/09 04:13:31;;;;;;;17.63;10.73;;;;;;;;;;2049081;28;20031;-70
2020/12/09 04:14:51;;;;;;;21.35;11.07;;;;;;;;;;2048071;28;20031;-69
2020/12/09 04:16:10;;;;;;;25.10;11.45;;;;;;;;;;2047382;28;20474;-68
2020/12/09 04:17:29;;;;;;;20.05;11.02;;;;;;;;;;2048808;28;20023;-71
2020/12/09 04:18:48;;;;;;;15.98;9.93;;;;;;;;;;2049284;28;20027;-71
2020/12/09 04:20:07;;;;;;;18.33;10.90;;;;;;;;;;2049545;28;20433;-70
2020/12/09 04:21:26;;;;;;;16.17;10.05;;;;;;;;;;2048838;28;20039;-71
2020/12/09 04:22:45;;;;;;;17.25;10.70;;;;;;;;;;2049062;28;20040;-70
2020/12/09 04:24:05;;;;;;;16.27;10.57;;;;;;;;;;2049529;28;20086;-69
2020/12/09 04:25:24;;;;;;;17.02;10.13;;;;;;;;;;2050082;28;20051;-70
2020/12/09 04:26:43;;;;;;;20.98;10.55;;;;;;;;;;2048995;28;20031;-69
2020/12/09 04:28:02;;;;;;;15.00;10.10;;;;;;;;;;2048913;28;20027;-71
2020/12/09 04:29:21;;;;;;;15.82;9.70;;;;;;;;;;2048505;28;20035;-71
2020/12/09 04:30:40;;;;;;;14.50;10.10;;;;;;;;;;2041002;28;20063;-71
2020/12/09 04:31:58;;;;;;;16.17;9.85;;;;;;;;;;2048289;28;20070;-70
2020/12/09 04:33:19;;;;;;;17.38;9.75;;;;;;;;;;2047522;28;20394;-71
2020/12/09 04:34:38;;;;;;;14.25;9.52;;;;;;;;;;2046978;28;20023;-71
2020/12/09 04:35:58;;;;;;;16.83;10.13;;;;;;;;;;2049183;28;20030;-70
2020/12/09 04:37:19;;;;;;;15.75;10.07;;;;;;;;;;2048107;28;20534;-70
2020/12/09 04:38:39;;;;;;;14.55;9.77;;;;;;;;;;2046287;28;20031;-70
2020/12/09 04:39:58;;;;;;;16.05;9.75;;;;;;;;;;2046939;28;20074;-69
2020/12/09 04:41:17;;;;;;;20.40;11.50;;;;;;;;;;2048160;28;20378;-68
2020/12/09 04:42:35;;;;;;;18.85;9.82;;;;;;;;;;2048712;28;20023;-69
2020/12/09 04:43:55;;;;;;;14.85;9.88;;;;;;;;;;2047683;28;20031;-69
2020/12/09 04:45:13;;;;;;;16.73;9.55;;;;;;;;;;2051441;28;20465;-70
2020/12/09 04:46:36;;;;;;;14.15;9.02;;;;;;;;;;2046424;28;20038;-69
2020/12/09 04:47:59;;;;;;;16.05;10.32;;;;;;;;;;2050004;28;20074;-71
2020/12/09 04:49:22;;;;;;;12.57;9.85;;;;;;;;;;2050332;28;20508;-72
2020/12/09 04:50:53;;;;;;;15.48;9.77;;;;;;;;;;2050075;28;20030;-72
2020/12/09 04:52:31;;;;;;;12.82;9.45;;;;;;;;;;2049598;28;20039;-71
2020/12/09 04:53:55;;;;;;;18.20;10.13;;;;;;;;;;2048463;28;20109;-69
2020/12/09 04:55:15;;;;;;;19.42;9.82;;;;;;;;;;2047787;28;20035;-71
2020/12/09 04:56:39;;;;;;;16.55;9.50;;;;;;;;;;2048932;28;20039;-71
2020/12/09 04:58:02;;;;;;;;;;;;;;;;;;2050647;28;20027;-71
2020/12/09 04:59:25;;;;;;;17.10;8.90;;;;;;;;;;2049354;28;20005;-70
2020/12/09 05:00:44;;;;;;;;;;;;;;;;;;2041068;28;20498;-69
2020/12/09 05:02:07;;;;;;;13.00;8.65;;;;;;;;;;2047583;28;20005;-69
2020/12/09 05:03:26;;;;;;;;;;;;;;;;;;2047477;28;20035;-71
2020/12/09 05:04:45;;;;;;;16.73;8.40;;;;;;;;;;2047416;28;19910;-71
2020/12/09 05:06:04;;;;;;;15.90;9.18;;;;;;;;;;2050517;28;20031;-70
2020/12/09 05:07:24;;;;;;;13.63;8.60;;;;;;;;;;2049125;28;20030;-68
2020/12/09 05:08:49;;;;;;;10.98;8.15;;;;;;;;;;2047715;28;20062;-69
2020/12/09 05:10:08;;;;;;;12.88;8.45;;;;;;;;;;2049422;28;20035;-71
2020/12/09 05:11:27;;;;;;;17.17;8.77;;;;;;;;;;2048737;28;20403;-71
2020/12/09 05:12:48;;;;;;;11.35;7.88;;;;;;;;;;2048922;28;20031;-70
2020/12/09 05:14:07;;;;;;;12.13;8.30;;;;;;;;;;2048047;28;20035;-70
2020/12/09 05:15:27;;;;;;;13.57;8.18;;;;;;;;;;2046897;28;20050;-70
2020/12/09 05:16:56;;;;;;;11.30;8.35;;;;;;;;;;2044628;28;20038;-70
2020/12/09 05:18:16;;;;;;;12.57;8.68;;;;;;;;;;2051831;28;20126;-70
2020/12/09 05:19:35;;;;;;;12.18;7.60;;;;;;;;;;2050450;28;20059;-70
2020/12/09 05:20:54;;;;;;;11.35;8.25;;;;;;;;;;2051006;28;20030;-70
2020/12/09 05:22:14;;;;;;;10.75;8.20;;;;;;;;;;2051362;28;20027;-69
2020/12/09 05:23:35;;;;;;;12.00;7.93;;;;;;;;;;2054268;28;20055;-68
2020/12/09 05:24:54;;;;;;;14.38;7.70;;;;;;;;;;2055455;28;20466;-70
2020/12/09 05:26:39;;;;;;;11.93;7.57;;;;;;;;;;2053323;28;20450;-70
2020/12/09 05:27:58;;;;;;;11.90;7.57;;;;;;;;;;2055872;28;20474;-69
2020/12/09 05:29:18;;;;;;;12.52;8.20;;;;;;;;;;2055647;28;20502;-70
2020/12/09 05:30:45;;;;;;;11.90;7.88;;;;;;;;;;2053546;28;20042;-70
2020/12/09 05:32:04;;;;;;;12.48;8.60;;;;;;;;;;2046754;28;20046;-69
2020/12/09 05:33:29;;;;;;;13.55;8.10;;;;;;;;;;2053926;28;20106;-72
2020/12/09 05:34:48;;;;;;;11.85;8.50;;;;;;;;;;2053049;28;20035;-72
2020/12/09 05:36:07;;;;;;;15.57;8.10;;;;;;;;;;2048235;28;20070;-68
2020/12/09 05:37:26;;;;;;;12.88;9.05;;;;;;;;;;2052232;28;20038;-69
2020/12/09 05:38:47;;;;;;;10.27;8.38;;;;;;;;;;2056322;28;20623;-70
2020/12/09 05:40:06;;;;;;;11.13;8.00;;;;;;;;;;2053231;28;20031;-70
2020/12/09 05:41:30;;;;;;;13.40;8.32;;;;;;;;;;2051116;28;20043;-70
2020/12/09 05:42:49;;;;;;;12.90;7.38;;;;;;;;;;2052774;28;20483;-70
2020/12/09 05:44:08;;;;;;;11.63;7.97;;;;;;;;;;2056751;28;20019;-69
2020/12/09 05:45:27;;;;;;;12.38;7.63;;;;;;;;;;2053567;28;21127;-70
2020/12/09 05:46:52;;;;;;;12.63;8.48;;;;;;;;;;2055262;28;20035;-69
2020/12/09 05:48:24;;;;;;;14.82;7.97;;;;;;;;;;2054198;28;20106;-70
2020/12/09 05:49:43;;;;;;;15.07;9.27;;;;;;;;;;2053742;28;20030;-69
2020/12/09 05:51:02;;;;;;;11.68;7.95;;;;;;;;;;2049064;28;20019;-69
2020/12/09 05:52:22;;;;;;;12.65;8.27;;;;;;;;;;2056160;28;20067;-70
2020/12/09 05:53:40;;;;;;;14.95;8.35;;;;;;;;;;2056936;28;20039;-69
2020/12/09 05:55:01;;;;;;;14.95;8.88;;;;;;;;;;2053161;28;20023;-69
2020/12/09 05:56:27;;;;;;;12.00;8.05;;;;;;;;;;2054349;28;20027;-69
2020/12/09 05:57:46;;;;;;;12.38;8.07;;;;;;;;;;2053944;28;20034;-70
2020/12/09 05:59:05;;;;;;;14.20;8.40;;;;;;;;;;2053881;28;20023;-71
2020/12/09 06:00:24;;;;;;;10.75;7.03;;;;;;;;;;2055786;28;20023;-70
2020/12/09 06:01:43;;;;;;;12.82;7.72;;;;;;;;;;2055474;28;20387;-71
2020/12/09 06:03:15;;;;;;;12.32;8.10;;;;;;;;;;2052965;28;20039;-71
2020/12/09 06:05:03;;;;;;;10.38;7.30;;;;;;;;;;2055755;28;20035;-70
2020/12/09 06:06:29;;;;;;;10.35;7.32;;;;;;;;;;2050712;28;20034;-70
2020/12/09 06:07:48;;;;;;;12.25;8.13;;;;;;;;;;2052423;28;20030;-70
2020/12/09 06:09:07;;;;;;;14.65;7.82;;;;;;;;;;2050751;28;20035;-71
2020/12/09 06:10:26;;;;;;;13.13;8.35;;;;;;;;;;2055462;28;20034;-71
2020/12/09 06:11:44;;;;;;;14.25;8.10;;;;;;;;;;2052210;28;20039;-68
2020/12/09 06:13:03;;;;;;;13.13;8.15;;;;;;;;;;2056439;28;20042;-69
2020/12/09 06:14:22;;;;;;;13.60;9.00;;;;;;;;;;2055433;28;20488;-69
2020/12/09 06:15:41;;;;;;;12.65;8.52;;;;;;;;;;2054497;28;20031;-69
2020/12/09 06:17:00;;;;;;;14.05;8.18;;;;;;;;;;2052780;28;20027;-70
2020/12/09 06:18:20;;;;;;;15.00;7.95;;;;;;;;;;2049926;28;20483;-69
2020/12/09 06:19:38;;;;;;;14.05;8.57;;;;;;;;;;2055509;28;20058;-70
2020/12/09 06:20:58;;;;;;;12.23;7.78;;;;;;;;;;2049841;28;20019;-71
2020/12/09 06:22:17;;;;;;;14.25;6.97;;;;;;;;;;2052955;28;20019;-70
2020/12/09 06:23:36;;;;;;;12.73;8.23;;;;;;;;;;2051604;28;20387;-70
2020/12/09 06:24:56;;;;;;;10.02;7.57;;;;;;;;;;2051105;28;20042;-70
2020/12/09 06:26:15;;;;;;;13.75;8.05;;;;;;;;;;2055756;28;20031;-70
2020/12/09 06:27:35;;;;;;;12.10;7.65;;;;;;;;;;2050722;28;20031;-69
2020/12/09 06:28:54;;;;;;;13.40;8.63;;;;;;;;;;2050985;28;20399;-70
2020/12/09 06:30:13;;;;;;;12.93;8.32;;;;;;;;;;2053663;28;21688;-70
2020/12/09 06:31:32;;;;;;;10.10;8.02;;;;;;;;;;2053811;28;20067;-70
2020/12/09 06:32:51;;;;;;;13.13;8.18;;;;;;;;;;2056939;28;20427;-69
2020/12/09 06:34:13;;;;;;;14.32;8.85;;;;;;;;;;2056832;28;20487;-70
2020/12/09 06:35:32;;;;;;;10.70;7.63;;;;;;;;;;2050259;28;20028;-70
2020/12/09 06:37:11;;;;;;;11.13;8.27;;;;;;;;;;2051694;28;20424;-70
2020/12/09 06:38:29;;;;;;;12.73;7.93;;;;;;;;;;2055040;28;20047;-70
2020/12/09 06:40:06;;;;;;;13.55;8.25;;;;;;;;;;2047832;28;20066;-70
2020/12/09 06:41:25;;;;;;;14.27;8.35;;;;;;;;;;2050517;28;20030;-69
2020/12/09 06:42:45;;;;;;;11.23;8.60;;;;;;;;;;2051714;28;20121;-69
2020/12/09 06:44:08;;;;;;;14.48;8.20;;;;;;;;;;2052312;28;20019;-69
2020/12/09 06:45:39;;;;;;;14.35;8.55;;;;;;;;;;2050138;28;20031;-69
2020/12/09 06:46:59;;;;;;;12.07;7.60;;;;;;;;;;2056319;28;20094;-70
2020/12/09 06:48:18;;;;;;;11.88;7.47;;;;;;;;;;2052321;28;20452;-69
2020/12/09 06:49:38;;;;;;;14.25;7.82;;;;;;;;;;2050198;28;20031;-68
2020/12/09 06:50:57;;;;;;;11.98;8.02;;;;;;;;;;2049886;28;20483;-69
2020/12/09 06:52:27;;;;;;;11.90;7.57;;;;;;;;;;2053997;28;20046;-69
2020/12/09 06:54:05;;;;;;;12.57;7.65;;;;;;;;;;2056119;28;20031;-69
2020/12/09 06:55:24;;;;;;;11.75;7.70;;;;;;;;;;2054892;28;20031;-69
2020/12/09 06:56:43;;;;;;;10.23;7.82;;;;;;;;;;2050957;28;20027;-69
2020/12/09 06:58:20;;;;;;;14.82;8.02;;;;;;;;;;2052322;28;20027;-69
2020/12/09 06:59:39;;;;;;;12.52;8.02;;;;;;;;;;2055422;28;20035;-69
2020/12/09 07:00:58;;;;;;;11.63;8.00;;;;;;;;;;2054301;28;20031;-69
2020/12/09 07:02:25;;;;;;;11.73;7.90;;;;;;;;;;2055781;28;20019;-68
2020/12/09 07:03:51;;;;;;;15.38;8.73;;;;;;;;;;2056060;28;20023;-68
2020/12/09 07:05:28;;;;;;;14.65;8.50;;;;;;;;;;2054435;28;20027;-69
2020/12/09 07:06:48;;;;;;;12.13;7.57;;;;;;;;;;2050641;28;20027;-69
2020/12/09 07:08:07;;;;;;;10.98;7.82;;;;;;;;;;2055589;28;20041;-69
2020/12/09 07:09:32;;;;;;;13.48;8.13;;;;;;;;;;2055702;28;20074;-69
2020/12/09 07:10:51;;;;;;;17.83;7.93;;;;;;;;;;2044812;28;20459;-69
2020/12/09 07:12:10;;;;;;;10.38;7.45;;;;;;;;;;2049819;28;20454;-69
2020/12/09 07:13:29;;;;;;;9.23;7.10;;;;;;;;;;2053216;28;20495;-68
2020/12/09 07:14:48;;;;;;;12.82;8.10;;;;;;;;;;2057154;28;20478;-68
2020/12/09 07:16:07;;;;;;;10.05;7.43;;;;;;;;;;2061434;28;20022;-69
2020/12/09 07:17:27;;;;;;;8.45;6.32;;;;;;;;;;2054113;28;20034;-69
2020/12/09 07:18:46;;;;;;;11.43;6.90;;;;;;;;;;2052552;28;20034;-69
2020/12/09 07:20:05;;;;;;;11.02;7.57;;;;;;;;;;2054299;28;20027;-69
2020/12/09 07:21:28;;;;;;;12.38;7.75;;;;;;;;;;2051653;28;20026;-69
2020/12/09 07:22:47;;;;;;;10.73;6.90;;;;;;;;;;2054523;28;20546;-69
2020/12/09 07:24:06;;;;;;;11.45;7.45;;;;;;;;;;2057247;28;20114;-69
2020/12/09 07:25:25;;;;;;;15.57;7.35;;;;;;;;;;2054586;28;20055;-69
2020/12/09 07:26:50;;;;;;;10.05;6.63;;;;;;;;;;2053224;28;20076;-69
2020/12/09 07:28:10;;;;;;;12.80;7.45;;;;;;;;;;2054005;28;20035;-69
2020/12/09 07:29:29;;;;;;;10.27;7.40;;;;;;;;;;2051715;28;20102;-69
2020/12/09 07:30:48;;;;;;;9.23;6.35;;;;;;;;;;2056122;28;20031;-69
2020/12/09 07:32:08;;;;;;;9.50;6.07;;;;;;;;;;2054449;28;20019;-69
2020/12/09 07:33:27;;;;;;;11.13;7.55;;;;;;;;;;2055915;28;20030;-69
2020/12/09 07:34:49;;;;;;;12.35;6.95;;;;;;;;;;2053937;28;20034;-68
2020/12/09 07:36:10;;;;;;;10.07;7.03;;;;;;;;;;2055404;28;20039;-68
2020/12/09 07:37:35;;;;;;;10.43;6.97;;;;;;;;;;2055308;28;20106;-68
2020/12/09 07:38:54;;;;;;;9.65;6.93;;;;;;;;;;2051019;28;20019;-69
2020/12/09 07:40:16;;;;;;;9.13;6.50;;;;;;;;;;2056470;28;20433;-68
2020/12/09 07:41:44;;;;;;;9.85;7.03;;;;;;;;;;2056816;28;20388;-69
2020/12/09 07:43:07;;;;;;;11.57;5.95;;;;;;;;;;2056237;28;20027;-69
2020/12/09 07:44:27;;;;;;;9.88;6.20;;;;;;;;;;2055958;28;20068;-69
2020/12/09 07:45:45;;;;;;;9.27;6.03;;;;;;;;;;2056908;28;20038;-69
2020/12/09 07:47:04;;;;;;;8.68;6.75;;;;;;;;;;2055860;28;20030;-69
2020/12/09 07:48:23;;;;;;;9.57;5.97;;;;;;;;;;2054228;28;20030;-69
2020/12/09 07:49:50;;;;;;;7.93;6.03;;;;;;;;;;2050999;28;20098;-69
2020/12/09 07:51:09;;;;;;;10.70;5.88;;;;;;;;;;2056166;28;20109;-69
2020/12/09 07:52:28;;;;;;;10.20;6.45;;;;;;;;;;2055493;28;20027;-69